sensor_id;sensor_type;location;lat;lon;timestamp;temperature;humidity
23251;DHT22;11794;49.730;10.088;2022-10-16T00:00:37;15.20;99.90
23251;DHT22;11794;49.730;10.088;2022-10-16T00:03:03;15.30;99.90
23251;DHT22;11794;49.730;10.088;2022-10-16T00:05:29;15.40;99.90
23251;DHT22;11794;49.730;10.088;2022-10-16T00:07:54;15.30;99.90
23251;DHT22;11794;49.730;10.088;2022-10-16T00:10:20;15.30;99.90
23251;DHT22;11794;49.730;10.088;2022-10-16T00:12:46;15.30;99.90
23251;DHT22;11794;49.730;10.088;2022-10-16T00:15:12;15.30;99.90
23251;DHT22;11794;49.730;10.088;2022-10-16T00:17:37;15.40;99.90
23251;DHT22;11794;49.730;10.088;2022-10-16T00:20:03;15.40;99.90
23251;DHT22;11794;49.730;10.088;2022-10-16T00:22:29;15.40;99.90
23251;DHT22;11794;49.730;10.088;2022-10-16T00:24:55;15.40;99.90
23251;DHT22;11794;49.730;10.088;2022-10-16T00:27:20;15.40;99.90
23251;DHT22;11794;49.730;10.088;2022-10-16T00:29:50;15.30;99.90
23251;DHT22;11794;49.730;10.088;2022-10-16T00:32:16;15.30;99.90
23251;DHT22;11794;49.730;10.088;2022-10-16T00:34:42;15.40;99.90
23251;DHT22;11794;49.730;10.088;2022-10-16T00:37:08;15.30;99.90
23251;DHT22;11794;49.730;10.088;2022-10-16T00:39:33;15.30;99.90
23251;DHT22;11794;49.730;10.088;2022-10-16T00:41:59;15.40;99.90
23251;DHT22;11794;49.730;10.088;2022-10-16T00:44:49;15.40;99.90
23251;DHT22;11794;49.730;10.088;2022-10-16T00:47:21;15.40;99.90
23251;DHT22;11794;49.730;10.088;2022-10-16T00:49:49;15.40;99.90
23251;DHT22;11794;49.730;10.088;2022-10-16T00:52:15;15.40;99.90
23251;DHT22;11794;49.730;10.088;2022-10-16T00:54:41;15.30;99.90
23251;DHT22;11794;49.730;10.088;2022-10-16T00:57:07;15.30;99.90
23251;DHT22;11794;49.730;10.088;2022-10-16T00:59:40;15.40;99.90
23251;DHT22;11794;49.730;10.088;2022-10-16T01:02:09;15.40;99.90
23251;DHT22;11794;49.730;10.088;2022-10-16T01:04:37;15.30;99.90
23251;DHT22;11794;49.730;10.088;2022-10-16T01:07:20;15.40;99.90
23251;DHT22;11794;49.730;10.088;2022-10-16T01:10:04;15.40;99.90
23251;DHT22;11794;49.730;10.088;2022-10-16T01:12:50;15.40;99.90
23251;DHT22;11794;49.730;10.088;2022-10-16T01:15:36;15.30;99.90
23251;DHT22;11794;49.730;10.088;2022-10-16T01:21:22;15.40;99.90
23251;DHT22;11794;49.730;10.088;2022-10-16T01:32:36;15.40;99.90
23251;DHT22;11794;49.730;10.088;2022-10-16T01:35:10;15.40;99.90
23251;DHT22;11794;49.730;10.088;2022-10-16T01:37:40;15.30;99.90
23251;DHT22;11794;49.730;10.088;2022-10-16T01:40:11;15.30;99.90
23251;DHT22;11794;49.730;10.088;2022-10-16T01:42:41;15.30;99.90
23251;DHT22;11794;49.730;10.088;2022-10-16T01:45:11;15.20;99.90
23251;DHT22;11794;49.730;10.088;2022-10-16T01:47:39;15.20;99.90
23251;DHT22;11794;49.730;10.088;2022-10-16T01:50:07;15.10;99.90
23251;DHT22;11794;49.730;10.088;2022-10-16T01:52:37;15.10;99.90
23251;DHT22;11794;49.730;10.088;2022-10-16T01:55:05;15.00;99.90
23251;DHT22;11794;49.730;10.088;2022-10-16T01:57:32;15.00;99.90
23251;DHT22;11794;49.730;10.088;2022-10-16T02:00:03;14.90;99.90
23251;DHT22;11794;49.730;10.088;2022-10-16T02:02:30;14.90;99.90
23251;DHT22;11794;49.730;10.088;2022-10-16T02:05:33;15.00;99.90
23251;DHT22;11794;49.730;10.088;2022-10-16T02:07:56;15.00;99.90
23251;DHT22;11794;49.730;10.088;2022-10-16T02:10:24;15.00;99.90
23251;DHT22;11794;49.730;10.088;2022-10-16T02:13:00;15.00;99.90
23251;DHT22;11794;49.730;10.088;2022-10-16T02:15:28;15.00;99.90
23251;DHT22;11794;49.730;10.088;2022-10-16T02:17:54;14.90;99.90
23251;DHT22;11794;49.730;10.088;2022-10-16T02:20:24;14.90;99.90
23251;DHT22;11794;49.730;10.088;2022-10-16T02:22:50;14.90;99.90
23251;DHT22;11794;49.730;10.088;2022-10-16T02:25:37;14.90;99.90
23251;DHT22;11794;49.730;10.088;2022-10-16T02:30:45;14.90;99.90
23251;DHT22;11794;49.730;10.088;2022-10-16T02:33:13;15.00;99.90
23251;DHT22;11794;49.730;10.088;2022-10-16T02:35:41;15.00;99.90
23251;DHT22;11794;49.730;10.088;2022-10-16T02:38:09;15.00;99.90
23251;DHT22;11794;49.730;10.088;2022-10-16T02:40:36;15.00;99.90
23251;DHT22;11794;49.730;10.088;2022-10-16T02:43:04;14.90;99.90
23251;DHT22;11794;49.730;10.088;2022-10-16T02:45:29;14.90;99.90
23251;DHT22;11794;49.730;10.088;2022-10-16T02:47:55;14.90;99.90
23251;DHT22;11794;49.730;10.088;2022-10-16T02:50:20;14.90;99.90
23251;DHT22;11794;49.730;10.088;2022-10-16T02:52:46;14.90;99.90
23251;DHT22;11794;49.730;10.088;2022-10-16T02:55:12;14.90;99.90
23251;DHT22;11794;49.730;10.088;2022-10-16T02:57:37;14.90;99.90
23251;DHT22;11794;49.730;10.088;2022-10-16T03:00:06;14.90;99.90
23251;DHT22;11794;49.730;10.088;2022-10-16T03:02:32;15.00;99.90
23251;DHT22;11794;49.730;10.088;2022-10-16T03:04:58;15.00;99.90
23251;DHT22;11794;49.730;10.088;2022-10-16T03:07:23;15.00;99.90
23251;DHT22;11794;49.730;10.088;2022-10-16T03:09:49;15.00;99.90
23251;DHT22;11794;49.730;10.088;2022-10-16T03:12:14;15.00;99.90
23251;DHT22;11794;49.730;10.088;2022-10-16T03:14:40;15.00;99.90
23251;DHT22;11794;49.730;10.088;2022-10-16T03:17:05;15.00;99.90
23251;DHT22;11794;49.730;10.088;2022-10-16T03:19:31;15.00;99.90
23251;DHT22;11794;49.730;10.088;2022-10-16T03:21:57;15.10;99.90
23251;DHT22;11794;49.730;10.088;2022-10-16T03:24:22;15.10;99.90
23251;DHT22;11794;49.730;10.088;2022-10-16T03:26:48;15.00;99.90
23251;DHT22;11794;49.730;10.088;2022-10-16T03:29:13;15.00;99.90
23251;DHT22;11794;49.730;10.088;2022-10-16T03:31:39;15.00;99.90
23251;DHT22;11794;49.730;10.088;2022-10-16T03:34:04;15.00;99.90
23251;DHT22;11794;49.730;10.088;2022-10-16T03:36:30;15.00;99.90
23251;DHT22;11794;49.730;10.088;2022-10-16T03:38:56;15.00;99.90
23251;DHT22;11794;49.730;10.088;2022-10-16T03:41:21;15.00;99.90
23251;DHT22;11794;49.730;10.088;2022-10-16T03:43:47;14.90;99.90
23251;DHT22;11794;49.730;10.088;2022-10-16T03:46:12;14.90;99.90
23251;DHT22;11794;49.730;10.088;2022-10-16T03:48:38;14.90;99.90
23251;DHT22;11794;49.730;10.088;2022-10-16T03:51:05;14.90;99.90
23251;DHT22;11794;49.730;10.088;2022-10-16T03:53:31;14.90;99.90
23251;DHT22;11794;49.730;10.088;2022-10-16T03:55:56;14.90;99.90
23251;DHT22;11794;49.730;10.088;2022-10-16T03:58:22;14.90;99.90
23251;DHT22;11794;49.730;10.088;2022-10-16T04:00:48;15.00;99.90
23251;DHT22;11794;49.730;10.088;2022-10-16T04:03:13;14.90;99.90
23251;DHT22;11794;49.730;10.088;2022-10-16T04:05:39;14.90;99.90
23251;DHT22;11794;49.730;10.088;2022-10-16T04:08:05;14.90;99.90
23251;DHT22;11794;49.730;10.088;2022-10-16T04:10:31;15.00;99.90
23251;DHT22;11794;49.730;10.088;2022-10-16T04:12:57;15.00;99.90
23251;DHT22;11794;49.730;10.088;2022-10-16T04:15:23;15.10;99.90
23251;DHT22;11794;49.730;10.088;2022-10-16T04:17:49;15.20;99.90
23251;DHT22;11794;49.730;10.088;2022-10-16T04:20:15;15.20;99.90
23251;DHT22;11794;49.730;10.088;2022-10-16T04:22:41;15.20;99.90
23251;DHT22;11794;49.730;10.088;2022-10-16T04:25:07;15.20;99.90
23251;DHT22;11794;49.730;10.088;2022-10-16T04:27:32;15.20;99.90
23251;DHT22;11794;49.730;10.088;2022-10-16T04:29:59;15.30;99.90
23251;DHT22;11794;49.730;10.088;2022-10-16T04:32:25;15.20;99.90
23251;DHT22;11794;49.730;10.088;2022-10-16T04:34:50;15.30;99.90
23251;DHT22;11794;49.730;10.088;2022-10-16T04:37:16;15.30;99.90
23251;DHT22;11794;49.730;10.088;2022-10-16T04:39:41;15.30;99.90
23251;DHT22;11794;49.730;10.088;2022-10-16T04:42:07;15.30;99.90
23251;DHT22;11794;49.730;10.088;2022-10-16T04:44:33;15.30;99.90
23251;DHT22;11794;49.730;10.088;2022-10-16T04:46:58;15.30;99.90
23251;DHT22;11794;49.730;10.088;2022-10-16T04:49:24;15.20;99.90
23251;DHT22;11794;49.730;10.088;2022-10-16T04:51:49;15.30;99.90
23251;DHT22;11794;49.730;10.088;2022-10-16T04:54:15;15.20;99.90
23251;DHT22;11794;49.730;10.088;2022-10-16T04:56:40;15.20;99.90
23251;DHT22;11794;49.730;10.088;2022-10-16T04:59:09;15.30;99.90
23251;DHT22;11794;49.730;10.088;2022-10-16T05:01:35;15.30;99.90
23251;DHT22;11794;49.730;10.088;2022-10-16T05:04:00;15.30;99.90
23251;DHT22;11794;49.730;10.088;2022-10-16T05:06:26;15.20;99.90
23251;DHT22;11794;49.730;10.088;2022-10-16T05:08:52;15.20;99.90
23251;DHT22;11794;49.730;10.088;2022-10-16T05:11:17;15.20;99.90
23251;DHT22;11794;49.730;10.088;2022-10-16T05:13:43;15.20;99.90
23251;DHT22;11794;49.730;10.088;2022-10-16T05:16:08;15.20;99.90
23251;DHT22;11794;49.730;10.088;2022-10-16T05:18:34;15.30;99.90
23251;DHT22;11794;49.730;10.088;2022-10-16T05:20:59;15.30;99.90
23251;DHT22;11794;49.730;10.088;2022-10-16T05:23:25;15.30;99.90
23251;DHT22;11794;49.730;10.088;2022-10-16T05:25:58;15.30;99.90
23251;DHT22;11794;49.730;10.088;2022-10-16T05:28:24;15.20;99.90
23251;DHT22;11794;49.730;10.088;2022-10-16T05:30:50;15.20;99.90
23251;DHT22;11794;49.730;10.088;2022-10-16T05:33:16;15.20;99.90
23251;DHT22;11794;49.730;10.088;2022-10-16T05:35:41;15.20;99.90
23251;DHT22;11794;49.730;10.088;2022-10-16T05:38:07;15.20;99.90
23251;DHT22;11794;49.730;10.088;2022-10-16T05:40:32;15.20;99.90
23251;DHT22;11794;49.730;10.088;2022-10-16T05:42:58;15.20;99.90
23251;DHT22;11794;49.730;10.088;2022-10-16T05:45:24;15.20;99.90
23251;DHT22;11794;49.730;10.088;2022-10-16T05:47:49;15.30;99.90
23251;DHT22;11794;49.730;10.088;2022-10-16T05:50:15;15.30;99.90
23251;DHT22;11794;49.730;10.088;2022-10-16T05:52:40;15.30;99.90
23251;DHT22;11794;49.730;10.088;2022-10-16T05:55:06;15.30;99.90
23251;DHT22;11794;49.730;10.088;2022-10-16T05:57:32;15.30;99.90
23251;DHT22;11794;49.730;10.088;2022-10-16T05:59:58;15.30;99.90
23251;DHT22;11794;49.730;10.088;2022-10-16T06:02:23;15.40;99.90
23251;DHT22;11794;49.730;10.088;2022-10-16T06:04:49;15.40;99.90
23251;DHT22;11794;49.730;10.088;2022-10-16T06:07:14;15.50;99.90
23251;DHT22;11794;49.730;10.088;2022-10-16T06:09:40;15.50;99.90
23251;DHT22;11794;49.730;10.088;2022-10-16T06:12:05;15.50;99.90
23251;DHT22;11794;49.730;10.088;2022-10-16T06:14:31;15.50;99.90
23251;DHT22;11794;49.730;10.088;2022-10-16T06:16:56;15.50;99.90
23251;DHT22;11794;49.730;10.088;2022-10-16T06:19:22;15.50;99.90
23251;DHT22;11794;49.730;10.088;2022-10-16T06:21:48;15.50;99.90
23251;DHT22;11794;49.730;10.088;2022-10-16T06:24:13;15.50;99.90
23251;DHT22;11794;49.730;10.088;2022-10-16T06:26:39;15.60;99.90
23251;DHT22;11794;49.730;10.088;2022-10-16T06:29:04;15.50;99.90
23251;DHT22;11794;49.730;10.088;2022-10-16T06:31:30;15.50;99.90
23251;DHT22;11794;49.730;10.088;2022-10-16T06:33:58;15.60;99.90
23251;DHT22;11794;49.730;10.088;2022-10-16T06:36:25;15.60;99.90
23251;DHT22;11794;49.730;10.088;2022-10-16T06:38:51;15.60;99.90
23251;DHT22;11794;49.730;10.088;2022-10-16T06:41:21;15.60;99.90
23251;DHT22;11794;49.730;10.088;2022-10-16T06:43:47;15.60;99.90
23251;DHT22;11794;49.730;10.088;2022-10-16T06:46:15;15.70;99.90
23251;DHT22;11794;49.730;10.088;2022-10-16T06:48:41;15.70;99.90
23251;DHT22;11794;49.730;10.088;2022-10-16T06:51:15;15.70;99.90
23251;DHT22;11794;49.730;10.088;2022-10-16T06:53:52;15.80;99.90
23251;DHT22;11794;49.730;10.088;2022-10-16T06:56:21;15.80;99.90
23251;DHT22;11794;49.730;10.088;2022-10-16T06:58:47;15.80;99.90
23251;DHT22;11794;49.730;10.088;2022-10-16T07:01:14;15.80;99.90
23251;DHT22;11794;49.730;10.088;2022-10-16T07:03:42;15.90;99.90
23251;DHT22;11794;49.730;10.088;2022-10-16T07:06:09;15.90;99.90
23251;DHT22;11794;49.730;10.088;2022-10-16T07:08:38;15.80;99.90
23251;DHT22;11794;49.730;10.088;2022-10-16T07:11:06;15.80;99.90
23251;DHT22;11794;49.730;10.088;2022-10-16T07:13:39;15.90;99.90
23251;DHT22;11794;49.730;10.088;2022-10-16T07:18:35;16.00;99.90
23251;DHT22;11794;49.730;10.088;2022-10-16T07:21:11;16.00;99.90
23251;DHT22;11794;49.730;10.088;2022-10-16T07:23:37;16.00;99.90
23251;DHT22;11794;49.730;10.088;2022-10-16T07:26:04;16.00;99.90
23251;DHT22;11794;49.730;10.088;2022-10-16T07:28:30;16.00;99.90
23251;DHT22;11794;49.730;10.088;2022-10-16T07:31:00;16.00;99.90
23251;DHT22;11794;49.730;10.088;2022-10-16T07:33:26;16.00;99.90
23251;DHT22;11794;49.730;10.088;2022-10-16T07:35:53;16.10;99.90
23251;DHT22;11794;49.730;10.088;2022-10-16T07:38:19;16.10;99.90
23251;DHT22;11794;49.730;10.088;2022-10-16T07:40:45;16.20;99.90
23251;DHT22;11794;49.730;10.088;2022-10-16T07:43:11;16.20;99.90
23251;DHT22;11794;49.730;10.088;2022-10-16T07:45:37;16.30;99.90
23251;DHT22;11794;49.730;10.088;2022-10-16T07:48:02;16.40;99.90
23251;DHT22;11794;49.730;10.088;2022-10-16T07:50:28;16.40;99.90
23251;DHT22;11794;49.730;10.088;2022-10-16T07:52:53;16.40;99.90
23251;DHT22;11794;49.730;10.088;2022-10-16T07:55:19;16.40;99.90
23251;DHT22;11794;49.730;10.088;2022-10-16T07:57:44;16.40;99.90
23251;DHT22;11794;49.730;10.088;2022-10-16T08:00:10;16.40;99.90
23251;DHT22;11794;49.730;10.088;2022-10-16T08:02:39;16.50;99.90
23251;DHT22;11794;49.730;10.088;2022-10-16T08:05:06;16.50;99.90
23251;DHT22;11794;49.730;10.088;2022-10-16T08:07:31;16.70;99.90
23251;DHT22;11794;49.730;10.088;2022-10-16T08:09:57;16.80;99.90
23251;DHT22;11794;49.730;10.088;2022-10-16T08:12:24;16.80;99.90
23251;DHT22;11794;49.730;10.088;2022-10-16T08:14:50;16.80;99.90
23251;DHT22;11794;49.730;10.088;2022-10-16T08:17:15;16.80;99.90
23251;DHT22;11794;49.730;10.088;2022-10-16T08:19:47;16.80;99.90
23251;DHT22;11794;49.730;10.088;2022-10-16T08:22:13;16.80;99.90
23251;DHT22;11794;49.730;10.088;2022-10-16T08:24:39;16.80;99.90
23251;DHT22;11794;49.730;10.088;2022-10-16T08:27:05;16.80;99.90
23251;DHT22;11794;49.730;10.088;2022-10-16T08:29:31;16.90;99.90
23251;DHT22;11794;49.730;10.088;2022-10-16T08:31:56;16.90;99.90
23251;DHT22;11794;49.730;10.088;2022-10-16T08:34:22;17.00;99.90
23251;DHT22;11794;49.730;10.088;2022-10-16T08:36:47;17.10;99.90
23251;DHT22;11794;49.730;10.088;2022-10-16T08:39:13;17.10;99.90
23251;DHT22;11794;49.730;10.088;2022-10-16T08:42:07;17.10;99.90
23251;DHT22;11794;49.730;10.088;2022-10-16T08:48:05;17.20;99.90
23251;DHT22;11794;49.730;10.088;2022-10-16T08:50:35;17.20;99.90
23251;DHT22;11794;49.730;10.088;2022-10-16T08:53:04;17.20;99.90
23251;DHT22;11794;49.730;10.088;2022-10-16T08:57:59;17.20;99.90
23251;DHT22;11794;49.730;10.088;2022-10-16T09:00:26;17.20;99.90
23251;DHT22;11794;49.730;10.088;2022-10-16T09:03:03;17.30;99.90
23251;DHT22;11794;49.730;10.088;2022-10-16T09:11:09;17.70;99.90
23251;DHT22;11794;49.730;10.088;2022-10-16T09:16:32;18.00;99.90
23251;DHT22;11794;49.730;10.088;2022-10-16T09:21:46;18.00;99.90
23251;DHT22;11794;49.730;10.088;2022-10-16T09:24:18;18.00;99.90
23251;DHT22;11794;49.730;10.088;2022-10-16T09:26:44;18.10;99.90
23251;DHT22;11794;49.730;10.088;2022-10-16T09:29:15;18.10;99.90
23251;DHT22;11794;49.730;10.088;2022-10-16T09:31:42;18.10;99.90
23251;DHT22;11794;49.730;10.088;2022-10-16T09:34:26;18.20;99.90
23251;DHT22;11794;49.730;10.088;2022-10-16T09:36:52;18.20;99.90
23251;DHT22;11794;49.730;10.088;2022-10-16T09:39:19;18.10;99.90
23251;DHT22;11794;49.730;10.088;2022-10-16T09:41:45;18.10;99.90
23251;DHT22;11794;49.730;10.088;2022-10-16T09:44:26;18.00;99.90
23251;DHT22;11794;49.730;10.088;2022-10-16T09:47:16;18.10;99.90
23251;DHT22;11794;49.730;10.088;2022-10-16T09:52:22;18.00;99.90
23251;DHT22;11794;49.730;10.088;2022-10-16T09:54:59;18.10;99.90
23251;DHT22;11794;49.730;10.088;2022-10-16T09:57:26;18.00;99.90
23251;DHT22;11794;49.730;10.088;2022-10-16T09:59:53;18.10;99.90
23251;DHT22;11794;49.730;10.088;2022-10-16T10:02:39;18.10;99.90
23251;DHT22;11794;49.730;10.088;2022-10-16T10:05:24;18.20;99.90
23251;DHT22;11794;49.730;10.088;2022-10-16T10:07:59;18.20;99.90
23251;DHT22;11794;49.730;10.088;2022-10-16T10:10:30;18.20;99.90
23251;DHT22;11794;49.730;10.088;2022-10-16T10:12:57;18.20;99.90
23251;DHT22;11794;49.730;10.088;2022-10-16T10:15:23;18.30;99.90
23251;DHT22;11794;49.730;10.088;2022-10-16T10:17:57;18.40;99.90
23251;DHT22;11794;49.730;10.088;2022-10-16T10:20:32;18.40;99.90
23251;DHT22;11794;49.730;10.088;2022-10-16T10:23:00;18.60;99.90
23251;DHT22;11794;49.730;10.088;2022-10-16T10:30:59;19.40;99.90
23251;DHT22;11794;49.730;10.088;2022-10-16T10:34:02;19.80;99.90
23251;DHT22;11794;49.730;10.088;2022-10-16T10:36:37;19.80;99.90
23251;DHT22;11794;49.730;10.088;2022-10-16T10:39:25;19.60;99.90
23251;DHT22;11794;49.730;10.088;2022-10-16T10:42:08;19.60;99.90
23251;DHT22;11794;49.730;10.088;2022-10-16T10:45:13;19.60;99.90
23251;DHT22;11794;49.730;10.088;2022-10-16T10:50:39;19.30;99.90
23251;DHT22;11794;49.730;10.088;2022-10-16T11:01:16;20.30;99.90
23251;DHT22;11794;49.730;10.088;2022-10-16T11:07:02;22.20;99.90
23251;DHT22;11794;49.730;10.088;2022-10-16T11:09:40;23.10;99.90
23251;DHT22;11794;49.730;10.088;2022-10-16T11:12:14;23.70;99.90
23251;DHT22;11794;49.730;10.088;2022-10-16T11:14:47;24.00;99.90
23251;DHT22;11794;49.730;10.088;2022-10-16T11:17:18;24.80;99.90
23251;DHT22;11794;49.730;10.088;2022-10-16T11:19:58;25.70;99.90
23251;DHT22;11794;49.730;10.088;2022-10-16T11:22:51;26.80;99.90
23251;DHT22;11794;49.730;10.088;2022-10-16T11:25:21;27.80;99.90
23251;DHT22;11794;49.730;10.088;2022-10-16T11:28:14;28.70;99.90
23251;DHT22;11794;49.730;10.088;2022-10-16T11:30:46;29.50;99.90
23251;DHT22;11794;49.730;10.088;2022-10-16T11:33:24;29.70;99.90
23251;DHT22;11794;49.730;10.088;2022-10-16T11:36:12;30.10;99.90
23251;DHT22;11794;49.730;10.088;2022-10-16T11:38:55;30.40;99.90
23251;DHT22;11794;49.730;10.088;2022-10-16T11:41:34;30.60;99.90
23251;DHT22;11794;49.730;10.088;2022-10-16T11:49:53;29.80;99.90
23251;DHT22;11794;49.730;10.088;2022-10-16T11:52:56;30.70;99.90
23251;DHT22;11794;49.730;10.088;2022-10-16T11:55:34;31.50;99.90
23251;DHT22;11794;49.730;10.088;2022-10-16T11:58:07;31.80;99.90
23251;DHT22;11794;49.730;10.088;2022-10-16T12:00:56;30.70;99.90
23251;DHT22;11794;49.730;10.088;2022-10-16T12:08:44;30.30;99.90
23251;DHT22;11794;49.730;10.088;2022-10-16T12:11:33;31.00;99.90
23251;DHT22;11794;49.730;10.088;2022-10-16T12:16:58;30.00;99.90
23251;DHT22;11794;49.730;10.088;2022-10-16T12:19:27;29.70;99.90
23251;DHT22;11794;49.730;10.088;2022-10-16T12:21:59;30.80;99.90
23251;DHT22;11794;49.730;10.088;2022-10-16T12:24:38;31.90;99.90
23251;DHT22;11794;49.730;10.088;2022-10-16T12:27:06;33.20;99.90
23251;DHT22;11794;49.730;10.088;2022-10-16T12:29:36;34.20;99.90
23251;DHT22;11794;49.730;10.088;2022-10-16T12:32:04;33.90;99.70
23251;DHT22;11794;49.730;10.088;2022-10-16T12:34:38;34.60;99.60
23251;DHT22;11794;49.730;10.088;2022-10-16T12:37:23;34.40;99.30
23251;DHT22;11794;49.730;10.088;2022-10-16T12:39:50;32.50;99.90
23251;DHT22;11794;49.730;10.088;2022-10-16T12:44:51;32.20;99.90
23251;DHT22;11794;49.730;10.088;2022-10-16T12:47:23;32.60;99.90
23251;DHT22;11794;49.730;10.088;2022-10-16T12:49:54;33.00;99.90
23251;DHT22;11794;49.730;10.088;2022-10-16T12:54:59;34.50;98.70
23251;DHT22;11794;49.730;10.088;2022-10-16T12:57:41;32.20;99.50
23251;DHT22;11794;49.730;10.088;2022-10-16T13:00:32;32.20;99.90
23251;DHT22;11794;49.730;10.088;2022-10-16T13:06:07;34.00;99.00
23251;DHT22;11794;49.730;10.088;2022-10-16T13:12:00;33.80;98.00
23251;DHT22;11794;49.730;10.088;2022-10-16T13:14:46;34.50;97.20
23251;DHT22;11794;49.730;10.088;2022-10-16T13:17:43;34.40;98.10
23251;DHT22;11794;49.730;10.088;2022-10-16T13:22:55;32.80;97.20
23251;DHT22;11794;49.730;10.088;2022-10-16T13:27:56;32.20;98.00
23251;DHT22;11794;49.730;10.088;2022-10-16T13:30:30;31.80;98.70
23251;DHT22;11794;49.730;10.088;2022-10-16T13:33:00;32.60;97.60
23251;DHT22;11794;49.730;10.088;2022-10-16T13:35:29;33.60;97.30
23251;DHT22;11794;49.730;10.088;2022-10-16T13:40:36;32.10;97.70
23251;DHT22;11794;49.730;10.088;2022-10-16T13:43:12;30.30;99.40
23251;DHT22;11794;49.730;10.088;2022-10-16T13:45:38;30.80;99.60
23251;DHT22;11794;49.730;10.088;2022-10-16T13:48:10;32.10;98.50
23251;DHT22;11794;49.730;10.088;2022-10-16T13:50:37;30.70;99.20
23251;DHT22;11794;49.730;10.088;2022-10-16T13:53:10;29.00;99.90
23251;DHT22;11794;49.730;10.088;2022-10-16T13:55:38;27.40;99.90
23251;DHT22;11794;49.730;10.088;2022-10-16T13:58:16;26.10;99.90
23251;DHT22;11794;49.730;10.088;2022-10-16T14:00:57;25.40;99.90
23251;DHT22;11794;49.730;10.088;2022-10-16T14:03:24;24.60;99.90
23251;DHT22;11794;49.730;10.088;2022-10-16T14:05:56;24.30;99.90
23251;DHT22;11794;49.730;10.088;2022-10-16T14:08:24;24.00;99.90
23251;DHT22;11794;49.730;10.088;2022-10-16T14:10:53;23.70;99.90
23251;DHT22;11794;49.730;10.088;2022-10-16T14:13:27;23.60;99.90
23251;DHT22;11794;49.730;10.088;2022-10-16T14:15:54;23.60;99.90
23251;DHT22;11794;49.730;10.088;2022-10-16T14:18:23;23.50;99.90
23251;DHT22;11794;49.730;10.088;2022-10-16T14:20:50;23.30;99.90
23251;DHT22;11794;49.730;10.088;2022-10-16T14:23:22;23.20;99.90
23251;DHT22;11794;49.730;10.088;2022-10-16T14:25:49;23.30;99.90
23251;DHT22;11794;49.730;10.088;2022-10-16T14:28:22;23.20;99.90
23251;DHT22;11794;49.730;10.088;2022-10-16T14:30:57;23.10;99.90
23251;DHT22;11794;49.730;10.088;2022-10-16T14:33:31;23.10;99.90
23251;DHT22;11794;49.730;10.088;2022-10-16T14:36:04;23.10;99.90
23251;DHT22;11794;49.730;10.088;2022-10-16T14:38:31;23.10;99.90
23251;DHT22;11794;49.730;10.088;2022-10-16T14:40:59;23.20;99.90
23251;DHT22;11794;49.730;10.088;2022-10-16T14:43:39;23.20;99.90
23251;DHT22;11794;49.730;10.088;2022-10-16T14:46:16;23.10;99.90
23251;DHT22;11794;49.730;10.088;2022-10-16T14:48:48;23.00;99.90
23251;DHT22;11794;49.730;10.088;2022-10-16T14:51:15;22.90;99.90
23251;DHT22;11794;49.730;10.088;2022-10-16T14:53:41;22.60;99.90
23251;DHT22;11794;49.730;10.088;2022-10-16T14:56:22;22.50;99.90
23251;DHT22;11794;49.730;10.088;2022-10-16T14:58:50;22.30;99.90
23251;DHT22;11794;49.730;10.088;2022-10-16T15:01:16;22.40;99.90
23251;DHT22;11794;49.730;10.088;2022-10-16T15:03:41;22.30;99.90
23251;DHT22;11794;49.730;10.088;2022-10-16T15:06:11;22.20;99.90
23251;DHT22;11794;49.730;10.088;2022-10-16T15:08:37;22.00;99.90
23251;DHT22;11794;49.730;10.088;2022-10-16T15:11:03;21.90;99.90
23251;DHT22;11794;49.730;10.088;2022-10-16T15:13:28;21.80;99.90
23251;DHT22;11794;49.730;10.088;2022-10-16T15:15:54;21.80;99.90
23251;DHT22;11794;49.730;10.088;2022-10-16T15:18:20;21.80;99.90
23251;DHT22;11794;49.730;10.088;2022-10-16T15:20:50;21.80;99.90
23251;DHT22;11794;49.730;10.088;2022-10-16T15:23:19;21.70;99.90
23251;DHT22;11794;49.730;10.088;2022-10-16T15:25:50;21.70;99.90
23251;DHT22;11794;49.730;10.088;2022-10-16T15:28:18;21.70;99.90
23251;DHT22;11794;49.730;10.088;2022-10-16T15:30:44;21.60;99.90
23251;DHT22;11794;49.730;10.088;2022-10-16T15:33:19;21.50;99.90
23251;DHT22;11794;49.730;10.088;2022-10-16T15:35:49;21.40;99.90
23251;DHT22;11794;49.730;10.088;2022-10-16T15:38:16;21.40;99.90
23251;DHT22;11794;49.730;10.088;2022-10-16T15:40:42;21.40;99.90
23251;DHT22;11794;49.730;10.088;2022-10-16T15:43:08;21.30;99.90
23251;DHT22;11794;49.730;10.088;2022-10-16T15:45:34;21.10;99.90
23251;DHT22;11794;49.730;10.088;2022-10-16T15:48:00;21.00;99.90
23251;DHT22;11794;49.730;10.088;2022-10-16T15:50:26;21.00;99.90
23251;DHT22;11794;49.730;10.088;2022-10-16T15:52:52;20.90;99.90
23251;DHT22;11794;49.730;10.088;2022-10-16T15:55:17;20.80;99.90
23251;DHT22;11794;49.730;10.088;2022-10-16T15:57:44;20.70;99.90
23251;DHT22;11794;49.730;10.088;2022-10-16T16:00:13;20.70;99.90
23251;DHT22;11794;49.730;10.088;2022-10-16T16:02:40;20.60;99.90
23251;DHT22;11794;49.730;10.088;2022-10-16T16:05:06;20.60;99.90
23251;DHT22;11794;49.730;10.088;2022-10-16T16:07:37;20.50;99.90
23251;DHT22;11794;49.730;10.088;2022-10-16T16:10:05;20.50;99.90
23251;DHT22;11794;49.730;10.088;2022-10-16T16:12:31;20.40;99.90
23251;DHT22;11794;49.730;10.088;2022-10-16T16:14:56;20.30;99.90
23251;DHT22;11794;49.730;10.088;2022-10-16T16:17:22;20.30;99.90
23251;DHT22;11794;49.730;10.088;2022-10-16T16:19:49;20.30;99.90
23251;DHT22;11794;49.730;10.088;2022-10-16T16:22:14;20.10;99.90
23251;DHT22;11794;49.730;10.088;2022-10-16T16:24:40;20.00;99.90
23251;DHT22;11794;49.730;10.088;2022-10-16T16:27:05;20.00;99.90
23251;DHT22;11794;49.730;10.088;2022-10-16T16:29:31;20.00;99.90
23251;DHT22;11794;49.730;10.088;2022-10-16T16:31:56;19.80;99.90
23251;DHT22;11794;49.730;10.088;2022-10-16T16:34:25;19.80;99.90
23251;DHT22;11794;49.730;10.088;2022-10-16T16:36:51;19.80;99.90
23251;DHT22;11794;49.730;10.088;2022-10-16T16:39:17;19.80;99.90
23251;DHT22;11794;49.730;10.088;2022-10-16T16:41:43;19.90;99.90
23251;DHT22;11794;49.730;10.088;2022-10-16T16:44:11;19.80;99.90
23251;DHT22;11794;49.730;10.088;2022-10-16T16:46:37;19.70;99.90
23251;DHT22;11794;49.730;10.088;2022-10-16T16:49:05;19.60;99.90
23251;DHT22;11794;49.730;10.088;2022-10-16T16:51:31;19.50;99.90
23251;DHT22;11794;49.730;10.088;2022-10-16T16:53:57;19.40;99.90
23251;DHT22;11794;49.730;10.088;2022-10-16T16:56:23;19.40;99.90
23251;DHT22;11794;49.730;10.088;2022-10-16T16:58:51;19.40;99.90